To NAV CANADA Home Page Login to a new session Search on AWWS site Disclaimer Vers la page française équivalente Tips FAQ What's new on the site To the Forecasts and Observations / NOTAM section To "File a Flight Plan" website Publications and other links Update of the User's profile FIC Telephone Numbers My Weather Data Folder Route Weather Data Regional Weather Data Local Weather Data To the Forecasts and Observations / NOTAM section
Request Generated 04/24/2019 at 16:01:07 UTC . Weather information available at that time is displayed.

METAR/TAF

ESTEVAN REGIONAL/SK    (show WxCam)

METAR CYEN 241500Z AUTO 31013KT 9SM CLR 12/06 A2982 RMK SLP107 DENSITY ALT 2000FT=
METAR CYEN 241400Z AUTO 29009KT 9SM FEW080 08/06 A2981 RMK SLP107=
METAR CYEN 241300Z AUTO 29007KT 9SM CLR 05/05 A2981 RMK SLP105=

TAF CYEN 241138Z 2412/2424 VRB03KT P6SM SKC TEMPO 2412/2414 5SM BR
BECMG 2412/2414 31012KT
FM241400 31012KT P6SM SCT060
BECMG 2416/2418 32020KT
RMK FCST BASED ON AUTO OBS. NXT FCST BY 241800Z=
Your time UTC time
Weather data provided by Environment Canada and NAV CANADA